createdAt,value
2018-11-29T00:00:58.539Z,928.50
2018-11-29T00:01:58.578Z,928.53
2018-11-29T00:02:58.625Z,928.59
2018-11-29T00:03:58.673Z,928.66
2018-11-29T00:04:58.726Z,928.61
2018-11-29T00:05:58.782Z,928.63
2018-11-29T00:06:58.856Z,928.66
2018-11-29T00:07:58.850Z,928.65
2018-11-29T00:08:58.931Z,928.66
2018-11-29T00:09:58.976Z,928.65
2018-11-29T00:10:59.015Z,928.61
2018-11-29T00:11:59.030Z,928.63
2018-11-29T00:12:59.111Z,928.63
2018-11-29T00:13:59.151Z,928.57
2018-11-29T00:14:59.208Z,928.64
2018-11-29T00:15:59.245Z,928.60
2018-11-29T00:16:59.285Z,928.59
2018-11-29T00:17:59.344Z,928.59
2018-11-29T00:18:59.407Z,928.61
2018-11-29T00:19:59.425Z,928.59
2018-11-29T00:20:59.517Z,928.60
2018-11-29T00:21:59.501Z,928.59
2018-11-29T00:22:59.574Z,928.61
2018-11-29T00:23:59.646Z,928.64
2018-11-29T00:24:59.651Z,928.67
2018-11-29T00:25:59.691Z,928.66
2018-11-29T00:26:59.733Z,928.61
2018-11-29T00:27:59.782Z,928.63
2018-11-29T00:28:59.880Z,928.61
2018-11-29T00:29:59.896Z,928.61
2018-11-29T00:30:59.930Z,928.66
2018-11-29T00:31:59.989Z,928.61
2018-11-29T00:33:00.038Z,928.62
2018-11-29T00:34:00.090Z,928.61
2018-11-29T00:35:00.131Z,928.64
2018-11-29T00:36:00.173Z,928.58
2018-11-29T00:37:00.214Z,928.64
2018-11-29T00:38:00.269Z,928.66
2018-11-29T00:39:00.309Z,928.70
2018-11-29T00:40:00.406Z,928.68
2018-11-29T00:41:00.403Z,928.70
2018-11-29T00:42:00.449Z,928.65
2018-11-29T00:43:00.486Z,928.67
2018-11-29T00:44:00.536Z,928.63
2018-11-29T00:45:00.584Z,928.69
2018-11-29T00:46:00.622Z,928.69
2018-11-29T00:47:00.741Z,928.69
2018-11-29T00:48:00.724Z,928.65
2018-11-29T00:49:00.757Z,928.68
2018-11-29T00:50:00.836Z,928.71
2018-11-29T00:51:00.856Z,928.69
2018-11-29T00:52:00.902Z,928.63
2018-11-29T00:53:00.971Z,928.69
2018-11-29T00:54:01.017Z,928.64
2018-11-29T00:55:01.036Z,928.63
2018-11-29T00:56:01.082Z,928.58
2018-11-29T00:57:01.135Z,928.68
2018-11-29T00:58:01.172Z,928.60
2018-11-29T00:59:01.223Z,928.60
2018-11-29T01:00:01.283Z,928.58
2018-11-29T01:01:01.334Z,928.63
2018-11-29T01:02:01.357Z,928.61
2018-11-29T01:03:01.429Z,928.56
2018-11-29T01:04:01.473Z,928.59
2018-11-29T01:05:01.494Z,928.54
2018-11-29T01:06:01.563Z,928.55
2018-11-29T01:07:01.576Z,928.51
2018-11-29T01:08:01.685Z,928.52
2018-11-29T01:09:01.690Z,928.53
2018-11-29T01:10:01.738Z,928.51
2018-11-29T01:11:01.789Z,928.48
2018-11-29T01:12:01.846Z,928.45
2018-11-29T01:13:01.885Z,928.47
2018-11-29T01:14:01.944Z,928.44
2018-11-29T01:15:01.984Z,928.48
2018-11-29T01:16:02.074Z,928.42
2018-11-29T01:17:02.094Z,928.41
2018-11-29T01:18:02.145Z,928.39
2018-11-29T01:19:02.203Z,928.41
2018-11-29T01:20:02.196Z,928.33
2018-11-29T01:21:02.266Z,928.36
2018-11-29T01:22:02.281Z,928.33
2018-11-29T01:23:02.366Z,928.36
2018-11-29T01:24:02.386Z,928.33
2018-11-29T01:25:02.426Z,928.36
2018-11-29T01:26:02.492Z,928.32
2018-11-29T01:27:02.521Z,928.32
2018-11-29T01:28:02.576Z,928.32
2018-11-29T01:29:02.611Z,928.30
2018-11-29T01:30:02.675Z,928.30
2018-11-29T01:31:02.717Z,928.30
2018-11-29T01:32:02.754Z,928.28
2018-11-29T01:33:02.818Z,928.26
2018-11-29T01:34:02.861Z,928.26
2018-11-29T01:35:02.894Z,928.38
2018-11-29T01:36:02.965Z,928.33
2018-11-29T01:37:03.043Z,928.37
2018-11-29T01:38:03.050Z,928.33
2018-11-29T01:39:03.114Z,928.33
2018-11-29T01:40:03.132Z,928.31
2018-11-29T01:41:03.191Z,928.31
2018-11-29T01:42:03.256Z,928.28
2018-11-29T01:43:03.289Z,928.29
2018-11-29T01:44:03.328Z,928.27
2018-11-29T01:45:03.351Z,928.22
2018-11-29T01:46:03.418Z,928.23
2018-11-29T01:47:03.460Z,928.21
2018-11-29T01:48:03.490Z,928.20
2018-11-29T01:49:03.550Z,928.18
2018-11-29T01:50:03.609Z,928.16
2018-11-29T01:51:03.652Z,928.24
2018-11-29T01:52:03.704Z,928.19
2018-11-29T01:53:03.751Z,928.18
2018-11-29T01:54:03.784Z,928.15
2018-11-29T01:55:03.841Z,928.20
2018-11-29T01:56:03.862Z,928.14
2018-11-29T01:57:03.933Z,928.13
2018-11-29T01:58:03.971Z,928.11
2018-11-29T01:59:04.009Z,928.15
2018-11-29T02:00:04.033Z,928.10
2018-11-29T02:01:04.110Z,928.10
2018-11-29T02:02:04.159Z,928.07
2018-11-29T02:03:04.177Z,928.07
2018-11-29T02:04:04.252Z,928.09
2018-11-29T02:05:04.287Z,928.13
2018-11-29T02:06:04.330Z,928.13
2018-11-29T02:07:04.394Z,928.09
2018-11-29T02:08:04.446Z,928.11
2018-11-29T02:09:04.466Z,928.14
2018-11-29T02:10:04.569Z,928.15
2018-11-29T02:11:04.563Z,928.11
2018-11-29T02:12:04.620Z,928.10
2018-11-29T02:13:04.658Z,928.17
2018-11-29T02:14:04.707Z,928.11
2018-11-29T02:15:04.759Z,928.11
2018-11-29T02:16:04.777Z,928.15
2018-11-29T02:17:04.834Z,928.10
2018-11-29T02:18:04.862Z,928.06
2018-11-29T02:19:04.921Z,928.05
2018-11-29T02:20:04.970Z,928.04
2018-11-29T02:21:05.020Z,928.06
2018-11-29T02:22:05.076Z,928.02
2018-11-29T02:23:05.115Z,927.98
2018-11-29T02:24:05.170Z,928.00
2018-11-29T02:25:05.203Z,927.97
2018-11-29T02:26:05.261Z,927.91
2018-11-29T02:27:05.304Z,927.91
2018-11-29T02:28:05.356Z,927.90
2018-11-29T02:29:05.393Z,927.84
2018-11-29T02:30:05.447Z,927.86
2018-11-29T02:31:05.527Z,927.82
2018-11-29T02:32:05.555Z,927.80
2018-11-29T02:33:05.596Z,927.81
2018-11-29T02:34:05.617Z,927.82
2018-11-29T02:35:05.701Z,927.85
2018-11-29T02:36:05.760Z,927.80
2018-11-29T02:37:05.761Z,927.83
2018-11-29T02:38:05.823Z,927.81
2018-11-29T02:39:05.869Z,927.84
2018-11-29T02:40:05.954Z,927.78
2018-11-29T02:41:05.933Z,927.79
2018-11-29T02:42:06.004Z,927.70
2018-11-29T02:43:06.047Z,927.74
2018-11-29T02:44:06.134Z,927.73
2018-11-29T02:45:06.131Z,927.69
2018-11-29T02:46:06.189Z,927.68
2018-11-29T02:47:06.221Z,927.71
2018-11-29T02:48:06.276Z,927.69
2018-11-29T02:49:06.294Z,927.70
2018-11-29T02:50:06.368Z,927.66
2018-11-29T02:51:06.412Z,927.69
2018-11-29T02:52:06.450Z,927.68
2018-11-29T02:53:06.490Z,927.69
2018-11-29T02:54:06.541Z,927.71
2018-11-29T02:55:06.568Z,927.71
2018-11-29T02:56:06.638Z,927.68
2018-11-29T02:57:06.693Z,927.69
2018-11-29T02:58:06.713Z,927.68
2018-11-29T02:59:06.776Z,927.68
2018-11-29T03:00:06.836Z,927.67
2018-11-29T03:01:06.854Z,927.66
2018-11-29T03:02:06.911Z,927.65
2018-11-29T03:03:07.000Z,927.66
2018-11-29T03:04:07.004Z,927.63
2018-11-29T03:05:07.061Z,927.64
2018-11-29T03:06:07.084Z,927.66
2018-11-29T03:07:07.132Z,927.65
2018-11-29T03:08:07.184Z,927.64
2018-11-29T03:09:07.245Z,927.68
2018-11-29T03:10:07.289Z,927.68
2018-11-29T03:11:07.312Z,927.68
2018-11-29T03:12:07.388Z,927.73
2018-11-29T03:13:07.427Z,927.71
2018-11-29T03:14:07.481Z,927.69
2018-11-29T03:15:07.494Z,927.67
2018-11-29T03:16:07.574Z,927.63
2018-11-29T03:17:07.603Z,927.55
2018-11-29T03:18:07.665Z,927.60
2018-11-29T03:19:07.699Z,927.55
2018-11-29T03:20:07.743Z,927.61
2018-11-29T03:21:07.798Z,927.58
2018-11-29T03:22:07.821Z,927.59
2018-11-29T03:23:07.877Z,927.60
2018-11-29T03:24:07.924Z,927.61
2018-11-29T03:25:07.979Z,927.59
2018-11-29T03:26:08.289Z,927.56
2018-11-29T03:27:08.130Z,927.53
2018-11-29T03:28:08.172Z,927.54
2018-11-29T03:29:08.156Z,927.54
2018-11-29T03:30:08.218Z,927.49
2018-11-29T03:31:08.263Z,927.53
2018-11-29T03:32:08.308Z,927.53
2018-11-29T03:33:08.352Z,927.51
2018-11-29T03:34:08.375Z,927.49
2018-11-29T03:35:08.452Z,927.43
2018-11-29T03:36:08.534Z,927.34
2018-11-29T03:37:08.565Z,927.40
2018-11-29T03:38:08.589Z,927.35
2018-11-29T03:39:08.669Z,927.37
2018-11-29T03:40:08.659Z,927.32
2018-11-29T03:41:08.769Z,927.33
2018-11-29T03:42:08.780Z,927.29
2018-11-29T03:43:08.806Z,927.26
2018-11-29T03:44:08.869Z,927.21
2018-11-29T03:45:08.957Z,927.25
2018-11-29T03:46:08.944Z,927.25
2018-11-29T03:47:09.007Z,927.24
2018-11-29T03:48:09.058Z,927.24
2018-11-29T03:49:09.069Z,927.21
2018-11-29T03:50:09.155Z,927.22
2018-11-29T03:51:09.182Z,927.21
2018-11-29T03:52:09.274Z,927.21
2018-11-29T03:53:09.290Z,927.17
2018-11-29T03:54:09.311Z,927.15
2018-11-29T03:55:09.380Z,927.09
2018-11-29T03:56:09.396Z,927.09
2018-11-29T03:57:09.464Z,927.07
2018-11-29T03:58:09.504Z,927.08
2018-11-29T03:59:09.561Z,927.04
2018-11-29T04:00:09.605Z,927.07
2018-11-29T04:01:09.652Z,927.02
2018-11-29T04:02:09.985Z,927.05
2018-11-29T04:03:09.750Z,927.00
2018-11-29T04:04:09.796Z,926.98
2018-11-29T04:05:09.849Z,926.94
2018-11-29T04:06:09.932Z,926.96
2018-11-29T04:07:09.932Z,926.94
2018-11-29T04:08:09.980Z,926.92
2018-11-29T04:09:10.018Z,926.94
2018-11-29T04:10:10.078Z,926.93
2018-11-29T04:11:10.087Z,926.89
2018-11-29T04:12:10.148Z,926.88
2018-11-29T04:13:10.219Z,926.87
2018-11-29T04:14:10.239Z,926.85
2018-11-29T04:15:10.342Z,926.83
2018-11-29T04:16:10.351Z,926.83
2018-11-29T04:17:10.455Z,926.80
2018-11-29T04:18:10.429Z,926.78
2018-11-29T04:19:10.493Z,926.80
2018-11-29T04:20:10.531Z,926.80
2018-11-29T04:21:10.613Z,926.83
2018-11-29T04:22:10.643Z,926.80
2018-11-29T04:23:10.692Z,926.84
2018-11-29T04:24:10.723Z,926.84
2018-11-29T04:25:10.809Z,926.80
2018-11-29T04:26:10.785Z,926.79
2018-11-29T04:27:10.847Z,926.82
2018-11-29T04:28:10.911Z,926.87
2018-11-29T04:29:10.934Z,926.83
2018-11-29T04:30:10.968Z,926.86
2018-11-29T04:31:11.032Z,926.82
2018-11-29T04:32:11.073Z,926.82
2018-11-29T04:33:11.107Z,926.81
2018-11-29T04:34:11.158Z,926.79
2018-11-29T04:35:11.275Z,926.78
2018-11-29T04:36:11.282Z,926.76
2018-11-29T04:37:11.317Z,926.77
2018-11-29T04:38:11.372Z,926.77
2018-11-29T04:39:11.391Z,926.76
2018-11-29T04:40:11.442Z,926.82
2018-11-29T04:41:11.477Z,926.82
2018-11-29T04:42:11.543Z,926.75
2018-11-29T04:43:11.601Z,926.75
2018-11-29T04:44:11.670Z,926.78
2018-11-29T04:45:11.701Z,926.73
2018-11-29T04:46:11.718Z,926.73
2018-11-29T04:47:11.761Z,926.76
2018-11-29T04:48:12.111Z,926.74
2018-11-29T04:49:11.863Z,926.76
2018-11-29T04:50:11.919Z,926.77
2018-11-29T04:51:11.962Z,926.74
2018-11-29T04:52:12.018Z,926.73
2018-11-29T04:53:12.041Z,926.76
2018-11-29T04:54:12.081Z,926.75
2018-11-29T04:55:12.142Z,926.76
2018-11-29T04:56:12.235Z,926.72
2018-11-29T04:57:12.262Z,926.73
2018-11-29T04:58:12.269Z,926.72
2018-11-29T04:59:12.375Z,926.71
2018-11-29T05:00:12.361Z,926.70
2018-11-29T05:01:12.403Z,926.66
2018-11-29T05:02:12.434Z,926.71
2018-11-29T05:03:12.485Z,926.69
2018-11-29T05:04:12.575Z,926.69
2018-11-29T05:05:12.586Z,926.67
2018-11-29T05:06:12.634Z,926.69
2018-11-29T05:07:12.684Z,926.69
2018-11-29T05:08:12.741Z,926.69
2018-11-29T05:09:12.796Z,926.69
2018-11-29T05:10:12.841Z,926.63
2018-11-29T05:11:12.893Z,926.61
2018-11-29T05:12:12.948Z,926.59
2018-11-29T05:13:12.973Z,926.55
2018-11-29T05:14:13.005Z,926.56
2018-11-29T05:15:13.060Z,926.50
2018-11-29T05:16:13.103Z,926.47
2018-11-29T05:17:13.141Z,926.43
2018-11-29T05:18:13.231Z,926.49
2018-11-29T05:19:13.251Z,926.44
2018-11-29T05:20:13.282Z,926.44
2018-11-29T05:21:13.329Z,926.39
2018-11-29T05:22:13.377Z,926.43
2018-11-29T05:23:13.476Z,926.43
2018-11-29T05:24:13.474Z,926.40
2018-11-29T05:25:13.524Z,926.38
2018-11-29T05:26:13.577Z,926.40
2018-11-29T05:27:13.619Z,926.35
2018-11-29T05:28:13.640Z,926.33
2018-11-29T05:29:13.716Z,926.33
2018-11-29T05:30:13.757Z,926.30
2018-11-29T05:31:13.775Z,926.33
2018-11-29T05:32:13.847Z,926.31
2018-11-29T05:33:13.888Z,926.32
2018-11-29T05:34:13.933Z,926.33
2018-11-29T05:35:13.990Z,926.32
2018-11-29T05:36:14.072Z,926.31
2018-11-29T05:37:14.075Z,926.25
2018-11-29T05:38:14.158Z,926.28
2018-11-29T05:39:14.183Z,926.29
2018-11-29T05:40:14.198Z,926.27
2018-11-29T05:41:14.257Z,926.30
2018-11-29T05:42:14.284Z,926.22
2018-11-29T05:43:14.345Z,926.20
2018-11-29T05:44:14.377Z,926.25
2018-11-29T05:45:14.430Z,926.23
2018-11-29T05:46:14.470Z,926.29
2018-11-29T05:47:14.510Z,926.25
2018-11-29T05:48:14.557Z,926.27
2018-11-29T05:49:14.632Z,926.27
2018-11-29T05:50:14.667Z,926.25
2018-11-29T05:51:14.704Z,926.28
2018-11-29T05:52:14.753Z,926.32
2018-11-29T05:53:14.808Z,926.31
2018-11-29T05:54:14.851Z,926.31
2018-11-29T05:55:14.878Z,926.32
2018-11-29T05:56:14.938Z,926.37
2018-11-29T05:57:15.031Z,926.35
2018-11-29T05:58:15.025Z,926.41
2018-11-29T05:59:15.080Z,926.41
2018-11-29T06:00:15.096Z,926.38
2018-11-29T06:01:15.207Z,926.37
2018-11-29T06:02:15.192Z,926.37
2018-11-29T06:03:15.263Z,926.35
2018-11-29T06:04:15.296Z,926.39
2018-11-29T06:05:15.337Z,926.36
2018-11-29T06:06:15.378Z,926.40
2018-11-29T06:07:15.436Z,926.40
2018-11-29T06:08:15.481Z,926.39
2018-11-29T06:09:15.533Z,926.40
2018-11-29T06:10:15.567Z,926.39
2018-11-29T06:11:15.597Z,926.41
2018-11-29T06:12:15.652Z,926.41
2018-11-29T06:13:15.717Z,926.39
2018-11-29T06:14:15.770Z,926.42
2018-11-29T06:15:15.808Z,926.36
2018-11-29T06:16:15.891Z,926.41
2018-11-29T06:17:15.876Z,926.39
2018-11-29T06:18:15.928Z,926.39
2018-11-29T06:19:15.974Z,926.41
2018-11-29T06:20:16.036Z,926.41
2018-11-29T06:21:16.109Z,926.41
2018-11-29T06:22:16.160Z,926.41
2018-11-29T06:23:16.170Z,926.38
2018-11-29T06:24:16.187Z,926.45
2018-11-29T06:25:16.255Z,926.39
2018-11-29T06:26:16.277Z,926.44
2018-11-29T06:27:16.355Z,926.46
2018-11-29T06:28:16.374Z,926.43
2018-11-29T06:29:16.476Z,926.42
2018-11-29T06:30:16.490Z,926.42
2018-11-29T06:31:16.551Z,926.40
2018-11-29T06:32:16.559Z,926.41
2018-11-29T06:33:16.614Z,926.38
2018-11-29T06:34:16.669Z,926.40
2018-11-29T06:35:16.690Z,926.43
2018-11-29T06:36:16.743Z,926.37
2018-11-29T06:37:17.062Z,926.38
2018-11-29T06:38:16.857Z,926.41
2018-11-29T06:39:16.892Z,926.37
2018-11-29T06:40:16.943Z,926.36
2018-11-29T06:41:17.012Z,926.39
2018-11-29T06:42:17.069Z,926.40
2018-11-29T06:43:17.081Z,926.41
2018-11-29T06:44:17.120Z,926.47
2018-11-29T06:45:17.190Z,926.45
2018-11-29T06:46:17.271Z,926.42
2018-11-29T06:47:17.266Z,926.42
2018-11-29T06:48:17.459Z,926.42
2018-11-29T06:49:17.323Z,926.44
2018-11-29T06:50:17.395Z,926.44
2018-11-29T06:51:17.445Z,926.47
2018-11-29T06:52:17.482Z,926.46
2018-11-29T06:53:17.517Z,926.47
2018-11-29T06:54:17.579Z,926.38
2018-11-29T06:55:17.624Z,926.44
2018-11-29T06:56:17.665Z,926.46
2018-11-29T06:57:17.712Z,926.48
2018-11-29T06:58:17.778Z,926.48
2018-11-29T06:59:17.813Z,926.45
2018-11-29T07:00:17.840Z,926.49
2018-11-29T07:01:17.933Z,926.45
2018-11-29T07:02:17.940Z,926.49
2018-11-29T07:03:17.986Z,926.54
2018-11-29T07:04:18.017Z,926.49
2018-11-29T07:05:18.065Z,926.54
2018-11-29T07:06:18.134Z,926.53
2018-11-29T07:07:18.164Z,926.56
2018-11-29T07:08:18.212Z,926.56
2018-11-29T07:09:18.243Z,926.61
2018-11-29T07:10:18.302Z,926.61
2018-11-29T07:11:18.338Z,926.61
2018-11-29T07:12:18.433Z,926.60
2018-11-29T07:13:18.426Z,926.54
2018-11-29T07:14:18.476Z,926.55
2018-11-29T07:15:18.539Z,926.57
2018-11-29T07:16:18.573Z,926.57
2018-11-29T07:17:18.606Z,926.56
2018-11-29T07:18:18.670Z,926.55
2018-11-29T07:19:18.711Z,926.54
2018-11-29T07:20:18.751Z,926.57
2018-11-29T07:21:18.799Z,926.54
2018-11-29T07:22:18.856Z,926.58
2018-11-29T07:23:18.897Z,926.60
2018-11-29T07:24:18.933Z,926.54
2018-11-29T07:25:18.991Z,926.53
2018-11-29T07:26:19.065Z,926.49
2018-11-29T07:27:19.078Z,926.50
2018-11-29T07:28:19.127Z,926.45
2018-11-29T07:29:19.165Z,926.48
2018-11-29T07:30:19.202Z,926.46
2018-11-29T07:31:19.230Z,926.42
2018-11-29T07:32:19.538Z,926.41
2018-11-29T07:33:19.336Z,926.43
2018-11-29T07:34:19.395Z,926.45
2018-11-29T07:35:19.437Z,926.40
2018-11-29T07:36:19.464Z,926.39
2018-11-29T07:37:19.515Z,926.39
2018-11-29T07:38:19.560Z,926.37
2018-11-29T07:39:19.652Z,926.34
2018-11-29T07:40:19.659Z,926.37
2018-11-29T07:41:19.701Z,926.39
2018-11-29T07:42:19.756Z,926.40
2018-11-29T07:43:19.790Z,926.40
2018-11-29T07:44:19.828Z,926.45
2018-11-29T07:45:19.877Z,926.49
2018-11-29T07:46:19.967Z,926.50
2018-11-29T07:47:19.979Z,926.52
2018-11-29T07:48:20.023Z,926.49
2018-11-29T07:49:20.080Z,926.53
2018-11-29T07:50:20.108Z,926.52
2018-11-29T07:51:20.158Z,926.51
2018-11-29T07:52:20.211Z,926.50
2018-11-29T07:53:20.261Z,926.51
2018-11-29T07:54:20.296Z,926.57
2018-11-29T07:55:20.395Z,926.53
2018-11-29T07:56:20.393Z,926.57
2018-11-29T07:57:20.420Z,926.58
2018-11-29T07:58:20.485Z,926.59
2018-11-29T07:59:20.522Z,926.65
2018-11-29T08:00:20.574Z,926.62
2018-11-29T08:01:20.598Z,926.61
2018-11-29T08:02:20.648Z,926.64
2018-11-29T08:03:20.709Z,926.69
2018-11-29T08:04:20.764Z,926.65
2018-11-29T08:05:20.798Z,926.69
2018-11-29T08:06:20.857Z,926.68
2018-11-29T08:07:20.896Z,926.66
2018-11-29T08:08:20.940Z,926.67
2018-11-29T08:09:20.980Z,926.67
2018-11-29T08:10:21.031Z,926.69
2018-11-29T08:11:21.113Z,926.68
2018-11-29T08:12:21.115Z,926.69
2018-11-29T08:13:21.134Z,926.72
2018-11-29T08:14:21.206Z,926.74
2018-11-29T08:15:21.234Z,926.72
2018-11-29T08:16:21.335Z,926.78
2018-11-29T08:17:21.340Z,926.80
2018-11-29T08:18:21.408Z,926.79
2018-11-29T08:19:21.473Z,926.83
2018-11-29T08:20:21.486Z,926.77
2018-11-29T08:21:21.519Z,926.79
2018-11-29T08:22:21.583Z,926.78
2018-11-29T08:23:21.609Z,926.76
2018-11-29T08:24:21.635Z,926.78
2018-11-29T08:25:21.695Z,926.75
2018-11-29T08:26:21.741Z,926.77
2018-11-29T08:27:21.787Z,926.78
2018-11-29T08:28:21.831Z,926.77
2018-11-29T08:29:21.884Z,926.78
2018-11-29T08:30:21.932Z,926.80
2018-11-29T08:31:21.972Z,926.81
2018-11-29T08:32:22.025Z,926.83
2018-11-29T08:33:22.087Z,926.80
2018-11-29T08:34:22.145Z,926.80
2018-11-29T08:35:22.133Z,926.79
2018-11-29T08:36:22.224Z,926.81
2018-11-29T08:37:22.245Z,926.83
2018-11-29T08:38:22.272Z,926.82
2018-11-29T08:39:22.324Z,926.82
2018-11-29T08:40:22.377Z,926.86
2018-11-29T08:41:22.431Z,926.87
2018-11-29T08:42:22.450Z,926.90
2018-11-29T08:43:22.565Z,926.89
2018-11-29T08:44:22.539Z,926.91
2018-11-29T08:45:22.602Z,926.90
2018-11-29T08:46:22.680Z,926.93
2018-11-29T08:47:22.679Z,926.97
2018-11-29T08:48:22.747Z,926.96
2018-11-29T08:49:22.793Z,926.95
2018-11-29T08:50:23.155Z,926.99
2018-11-29T08:51:22.880Z,926.96
2018-11-29T08:52:22.962Z,926.93
2018-11-29T08:53:22.972Z,926.92
2018-11-29T08:54:23.044Z,926.92
2018-11-29T08:55:23.037Z,926.91
2018-11-29T08:56:23.101Z,926.90
2018-11-29T08:57:23.190Z,926.91
2018-11-29T08:58:23.199Z,926.91
2018-11-29T08:59:23.251Z,926.91
2018-11-29T09:00:23.279Z,926.91
2018-11-29T09:01:23.337Z,926.91
2018-11-29T09:02:23.390Z,926.85
2018-11-29T09:03:23.478Z,926.88
2018-11-29T09:04:23.466Z,926.90
2018-11-29T09:05:23.556Z,926.89
2018-11-29T09:06:23.558Z,926.91
2018-11-29T09:07:23.612Z,926.92
2018-11-29T09:08:23.634Z,926.95
2018-11-29T09:09:23.754Z,926.98
2018-11-29T09:10:23.743Z,927.01
2018-11-29T09:11:23.788Z,927.00
2018-11-29T09:12:23.827Z,927.01
2018-11-29T09:13:23.872Z,927.03
2018-11-29T09:14:23.985Z,926.98
2018-11-29T09:15:23.957Z,926.94
2018-11-29T09:16:24.022Z,927.00
2018-11-29T09:17:24.044Z,926.98
2018-11-29T09:18:24.120Z,926.94
2018-11-29T09:19:24.167Z,926.97
2018-11-29T09:20:24.208Z,927.00
2018-11-29T09:21:24.236Z,927.01
2018-11-29T09:22:24.294Z,926.99
2018-11-29T09:23:24.347Z,927.03
2018-11-29T09:24:24.428Z,927.04
2018-11-29T09:25:24.452Z,927.08
2018-11-29T09:26:24.479Z,927.13
2018-11-29T09:27:24.542Z,927.13
2018-11-29T09:28:24.584Z,927.16
2018-11-29T09:29:24.629Z,927.15
2018-11-29T09:30:24.662Z,927.18
2018-11-29T09:31:24.723Z,927.17
2018-11-29T09:32:24.788Z,927.23
2018-11-29T09:33:24.799Z,927.20
2018-11-29T09:34:24.850Z,927.25
2018-11-29T09:35:24.911Z,927.28
2018-11-29T09:36:24.960Z,927.25
2018-11-29T09:37:25.005Z,927.30
2018-11-29T09:38:25.026Z,927.28
2018-11-29T09:39:25.102Z,927.30
2018-11-29T09:40:25.148Z,927.26
2018-11-29T09:41:25.208Z,927.29
2018-11-29T09:42:25.235Z,927.30
2018-11-29T09:43:25.347Z,927.28
2018-11-29T09:44:25.372Z,927.29
2018-11-29T09:45:25.354Z,927.31
2018-11-29T09:46:25.414Z,927.30
2018-11-29T09:47:25.482Z,927.34
2018-11-29T09:48:25.489Z,927.30
2018-11-29T09:49:25.582Z,927.26
2018-11-29T09:50:25.624Z,927.29
2018-11-29T09:51:25.679Z,927.29
2018-11-29T09:52:25.721Z,927.31
2018-11-29T09:53:25.766Z,927.29
2018-11-29T09:54:25.817Z,927.31
2018-11-29T09:55:25.880Z,927.35
2018-11-29T09:56:25.903Z,927.33
2018-11-29T09:57:25.945Z,927.34
2018-11-29T09:58:26.037Z,927.38
2018-11-29T09:59:26.050Z,927.36
2018-11-29T10:00:27.971Z,927.41
2018-11-29T10:01:26.201Z,927.40
2018-11-29T10:02:26.184Z,927.46
2018-11-29T10:03:26.250Z,927.48
2018-11-29T10:04:26.319Z,927.43
2018-11-29T10:05:26.352Z,927.42
2018-11-29T10:06:26.408Z,927.48
2018-11-29T10:07:26.463Z,927.45
2018-11-29T10:08:26.528Z,927.49
2018-11-29T10:09:26.563Z,927.50
2018-11-29T10:10:26.624Z,927.51
2018-11-29T10:11:26.669Z,927.55
2018-11-29T10:12:26.768Z,927.55
2018-11-29T10:13:26.784Z,927.59
2018-11-29T10:14:26.831Z,927.60
2018-11-29T10:15:26.888Z,927.61
2018-11-29T10:16:26.947Z,927.65
2018-11-29T10:17:26.992Z,927.69
2018-11-29T10:18:27.044Z,927.68
2018-11-29T10:19:27.087Z,927.68
2018-11-29T10:20:27.146Z,927.72
2018-11-29T10:21:27.181Z,927.77
2018-11-29T10:22:27.280Z,927.73
2018-11-29T10:23:27.291Z,927.75
2018-11-29T10:24:27.367Z,927.68
2018-11-29T10:25:27.418Z,927.68
2018-11-29T10:26:27.479Z,927.68
2018-11-29T10:27:27.539Z,927.70
2018-11-29T10:28:27.587Z,927.70
2018-11-29T10:29:27.636Z,927.68
2018-11-29T10:30:27.690Z,927.66
2018-11-29T10:31:27.744Z,927.63
2018-11-29T10:32:27.828Z,927.53
2018-11-29T10:33:27.864Z,927.51
2018-11-29T10:34:27.922Z,927.46
2018-11-29T10:35:27.988Z,927.50
2018-11-29T10:36:28.011Z,927.54
2018-11-29T10:37:28.086Z,927.51
2018-11-29T10:38:28.185Z,927.54
2018-11-29T10:39:28.182Z,927.56
2018-11-29T10:40:28.267Z,927.57
2018-11-29T10:41:28.306Z,927.56
2018-11-29T10:42:28.362Z,927.59
2018-11-29T10:43:28.416Z,927.57
2018-11-29T10:44:28.479Z,927.56
2018-11-29T10:45:28.512Z,927.55
2018-11-29T10:46:28.569Z,927.56
2018-11-29T10:47:28.625Z,927.54
2018-11-29T10:48:28.673Z,927.58
2018-11-29T10:49:28.735Z,927.52
2018-11-29T10:50:28.773Z,927.55
2018-11-29T10:51:28.847Z,927.54
2018-11-29T10:52:28.896Z,927.59
2018-11-29T10:53:28.944Z,927.59
2018-11-29T10:54:28.995Z,927.58
2018-11-29T10:55:29.050Z,927.65
2018-11-29T10:56:29.112Z,927.67
2018-11-29T10:57:29.147Z,927.68
2018-11-29T10:58:29.281Z,927.72
2018-11-29T10:59:29.255Z,927.72
2018-11-29T11:00:29.320Z,927.73
2018-11-29T11:01:29.384Z,927.69
2018-11-29T11:02:29.440Z,927.73
2018-11-29T11:03:29.487Z,927.72
2018-11-29T11:04:29.549Z,927.77
2018-11-29T11:05:29.611Z,927.76
2018-11-29T11:06:29.670Z,927.76
2018-11-29T11:07:29.755Z,927.76
2018-11-29T11:08:29.771Z,927.73
2018-11-29T11:09:29.826Z,927.79
2018-11-29T11:10:29.880Z,927.72
2018-11-29T11:11:29.972Z,927.68
2018-11-29T11:12:29.985Z,927.66
2018-11-29T11:13:30.082Z,927.65
2018-11-29T11:14:30.106Z,927.64
2018-11-29T11:15:30.234Z,927.64
2018-11-29T11:16:30.218Z,927.64
2018-11-29T11:17:30.316Z,927.64
2018-11-29T11:18:30.343Z,927.65
2018-11-29T11:19:30.388Z,927.59
2018-11-29T11:20:30.434Z,927.68
2018-11-29T11:21:30.556Z,927.66
2018-11-29T11:22:30.576Z,927.67
2018-11-29T11:23:30.616Z,927.68
2018-11-29T11:24:30.676Z,927.69
2018-11-29T11:25:30.743Z,927.67
2018-11-29T11:26:30.795Z,927.66
2018-11-29T11:27:30.851Z,927.66
2018-11-29T11:28:30.968Z,927.66
2018-11-29T11:29:31.027Z,927.74
2018-11-29T11:30:31.017Z,927.75
2018-11-29T11:31:31.336Z,927.75
2018-11-29T11:32:31.143Z,927.78
2018-11-29T11:33:31.217Z,927.75
2018-11-29T11:34:31.246Z,927.80
2018-11-29T11:35:31.330Z,927.80
2018-11-29T11:36:31.420Z,927.78
2018-11-29T11:37:31.428Z,927.73
2018-11-29T11:38:31.552Z,927.76
2018-11-29T11:39:31.564Z,927.74
2018-11-29T11:40:31.608Z,927.75
2018-11-29T11:41:31.676Z,927.72
2018-11-29T11:42:31.743Z,927.71
2018-11-29T11:43:31.802Z,927.71
2018-11-29T11:44:31.865Z,927.66
2018-11-29T11:45:31.914Z,927.71
2018-11-29T11:46:31.964Z,927.72
2018-11-29T11:47:32.028Z,927.70
2018-11-29T11:48:32.108Z,927.70
2018-11-29T11:49:32.170Z,927.67
2018-11-29T11:50:32.207Z,927.69
2018-11-29T11:51:32.290Z,927.72
2018-11-29T11:52:33.555Z,927.74
2018-11-29T11:53:32.378Z,927.72
2018-11-29T11:54:32.460Z,927.76
2018-11-29T11:55:32.527Z,927.74
2018-11-29T11:56:32.573Z,927.72
2018-11-29T11:57:32.626Z,927.70
2018-11-29T11:58:32.695Z,927.71
2018-11-29T11:59:32.770Z,927.73
2018-11-29T12:00:32.824Z,927.68
2018-11-29T12:01:32.873Z,927.68
2018-11-29T12:02:32.916Z,927.74
2018-11-29T12:03:33.010Z,927.77
2018-11-29T12:04:33.069Z,927.78
2018-11-29T12:05:33.128Z,927.79
2018-11-29T12:06:33.187Z,927.83
2018-11-29T12:07:33.241Z,927.81
2018-11-29T12:08:33.318Z,927.73
2018-11-29T12:09:33.367Z,927.75
2018-11-29T12:10:33.431Z,927.77
2018-11-29T12:11:33.481Z,927.72
2018-11-29T12:12:33.554Z,927.74
2018-11-29T12:13:33.625Z,927.73
2018-11-29T12:14:33.673Z,927.75
2018-11-29T12:15:33.715Z,927.70
2018-11-29T12:16:33.798Z,927.75
2018-11-29T12:17:33.871Z,927.71
2018-11-29T12:18:33.938Z,927.69
2018-11-29T12:19:33.989Z,927.71
2018-11-29T12:20:34.062Z,927.67
2018-11-29T12:21:34.093Z,927.66
2018-11-29T12:22:34.154Z,927.68
2018-11-29T12:23:34.210Z,927.70
2018-11-29T12:24:34.294Z,927.65
2018-11-29T12:25:34.357Z,927.69
2018-11-29T12:26:34.433Z,927.75
2018-11-29T12:27:34.500Z,927.67
2018-11-29T12:28:34.590Z,927.67
2018-11-29T12:29:34.637Z,927.71